Weather History for KISQ - June, 2014

Change the Weather History Date:

Wednesday, June 4, 2014

  Actual Average Record
Temperature  
Mean Temperature 58 °F -  
Max Temperature 72 °F 64 °F 84 °F (1961)
Min Temperature 43 °F 44 °F 30 °F (1964)
Degree Days  
Heating Degree Days 8    
Growing Degree Days 8 (Base 50)    
Moisture  
Dew Point 43 °F    
Average Humidity 61    
Maximum Humidity 95    
Minimum Humidity 31    
Precipitation  
Precipitation 0.02 in - - ()
Sea Level Pressure  
Sea Level Pressure 29.90 in    
Wind  
Wind Speed 7 mph (West)    
Max Wind Speed 14 mph    
Max Gust Speed 18 mph    
Visibility 10 miles    
Events      
Averages and records for this station are not official NWS values.
T = Trace of Precipitation, MM = Missing Value Source: NWS Daily Summary

Daily Weather History Graph

Daily Weather History Graph

Search for Another Location

Airport or City:

Trip Planner

Search our weather history database for the weather conditions in past years. The results will help you decide how hot, cold, wet, or windy it might be!

Date:

Astronomy

Jun. 04, 2014 Rise Set
Actual Time 5:56 AM EDT 9:30 PM EDT
Civil Twilight 5:18 AM EDT 10:08 PM EDT
Nautical Twilight 4:28 AM EDT 10:58 PM EDT
Astronomical Twilight 3:21 AM EDT 12:05 AM EDT
Moon 12:29 PM EDT (6/4) 1:15 AM EDT (6/4)
Length of Visible Light 16h 49m
Length of Day
15h 34m
Waxing Crescent, 39% of the Moon is Illuminated
Jun 4
Waxing Crescent
Jun 5
First Quarter
Jun 13
Full
Jun 19
Last Quarter
Jun 27
New

Hourly Weather History & Observations

Time (EDT) Temp. Windchill Dew Point Humidity Pressure Visibility Wind Dir Wind Speed Gust Speed Precip Events Conditions
12:15 AM 46.6 °F - 43.9 °F 90% 29.87 in 10.0 mi SW 8.1 mph - N/A   Clear
12:34 AM 46.6 °F - 43.5 °F 89% 29.87 in 10.0 mi SW 8.1 mph - N/A   Clear
1:14 AM 44.1 °F 42.5 °F 41.9 °F 92% 29.87 in 10.0 mi WSW 3.5 mph - N/A   Clear
1:35 AM 44.4 °F 41.2 °F 42.8 °F 94% 29.87 in 10.0 mi WSW 5.8 mph - N/A   Clear
1:55 AM 43.0 °F 38.8 °F 41.0 °F 93% 29.86 in 10.0 mi WSW 6.9 mph - N/A   Clear
2:14 AM 47.3 °F - 43.5 °F 87% 29.86 in 10.0 mi WSW 4.6 mph - N/A   Clear
2:35 AM 49.5 °F - 43.9 °F 81% 29.87 in 10.0 mi SW 9.2 mph 18.4 mph N/A   Clear
2:55 AM 49.3 °F - 44.8 °F 84% 29.87 in 10.0 mi WSW 5.8 mph - N/A   Clear
3:15 AM 50.5 °F - 46.4 °F 86% 29.86 in 10.0 mi WSW 5.8 mph - N/A   Clear
3:35 AM 50.0 °F - 46.0 °F 86% 29.87 in 10.0 mi WSW 4.6 mph - N/A   Clear
3:55 AM 49.6 °F - 45.7 °F 86% 29.86 in 10.0 mi WSW 4.6 mph - N/A   Clear
4:15 AM 49.6 °F - 45.5 °F 86% 29.86 in 10.0 mi WSW 3.5 mph - N/A   Clear
4:35 AM 50.2 °F - 45.1 °F 83% 29.87 in 10.0 mi SW 3.5 mph - N/A   Clear
4:54 AM 50.0 °F - 45.5 °F 85% 29.88 in 10.0 mi WSW 5.8 mph - N/A   Clear
5:15 AM 50.5 °F - 46.4 °F 86% 29.87 in 10.0 mi WSW 5.8 mph - N/A   Clear
5:35 AM 48.9 °F - 45.3 °F 87% 29.88 in 10.0 mi West 8.1 mph - N/A   Clear
5:54 AM 48.0 °F - 45.5 °F 91% 29.90 in 10.0 mi WNW 8.1 mph - N/A   Clear
6:15 AM 45.7 °F 42.0 °F 43.7 °F 93% 29.91 in 10.0 mi WNW 6.9 mph - N/A   Clear
6:35 AM 46.2 °F 40.8 °F 44.8 °F 95% 29.92 in 10.0 mi WNW 11.5 mph - N/A   Clear
6:55 AM 47.7 °F - 45.5 °F 92% 29.91 in 10.0 mi NNW 10.4 mph - N/A   Clear
7:15 AM 49.5 °F - 45.5 °F 86% 29.91 in 10.0 mi WNW 12.7 mph - N/A   Clear
7:35 AM 51.3 °F - 45.3 °F 80% 29.90 in 10.0 mi NW 10.4 mph - N/A   Clear
7:55 AM 53.8 °F - 46.2 °F 76% 29.90 in 10.0 mi NNW 6.9 mph - N/A   Clear
8:15 AM 55.6 °F - 46.4 °F 71% 29.91 in 10.0 mi NNW 5.8 mph - N/A   Clear
8:34 AM 57.4 °F - 45.3 °F 64% 29.90 in 10.0 mi NNW 5.8 mph - N/A   Clear
8:55 AM 58.8 °F - 45.3 °F 61% 29.90 in 10.0 mi NNW 5.8 mph - N/A   Clear
9:15 AM 60.3 °F - 45.3 °F 58% 29.91 in 10.0 mi North 5.8 mph - N/A   Clear
9:34 AM 61.9 °F - 45.7 °F 55% 29.92 in 10.0 mi North - - N/A   Clear
9:55 AM 63.1 °F - 45.1 °F 52% 29.92 in 10.0 mi North - - N/A   Clear
10:15 AM 64.2 °F - 45.9 °F 51% 29.92 in 10.0 mi North - - N/A   Clear
10:35 AM 65.3 °F - 44.6 °F 47% 29.92 in 10.0 mi North - - N/A   Clear
10:55 AM 66.2 °F - 43.3 °F 44% 29.92 in 10.0 mi North - - N/A   Clear
11:14 AM 64.9 °F - 46.6 °F 51% 29.92 in 10.0 mi SSW 9.2 mph - N/A   Clear
11:35 AM 64.6 °F - 47.7 °F 54% 29.92 in 10.0 mi South 10.4 mph - N/A   Clear
11:55 AM 65.1 °F - 48.2 °F 54% 29.92 in 10.0 mi SW 8.1 mph - N/A   Clear
12:14 PM 63.0 °F - 46.6 °F 55% 29.92 in 10.0 mi SSW 10.4 mph - N/A   Clear
12:35 PM 64.4 °F - 46.9 °F 53% 29.92 in 10.0 mi South 9.2 mph 16.1 mph N/A   Clear
12:55 PM 63.9 °F - 46.0 °F 52% 29.92 in 10.0 mi South 10.4 mph - N/A   Clear
1:15 PM 64.4 °F - 46.2 °F 52% 29.92 in 10.0 mi SSW 9.2 mph - 0.01 in   Clear
1:35 PM 64.6 °F - 45.0 °F 49% 29.91 in 10.0 mi North - - 0.01 in   Clear
1:54 PM 60.1 °F - 45.0 °F 57% 29.91 in 10.0 mi SSW 8.1 mph - 0.01 in   Clear
2:15 PM 63.1 °F - 44.2 °F 50% 29.91 in 10.0 mi SSW 8.1 mph - N/A   Clear
2:34 PM 64.6 °F - 43.3 °F 46% 29.91 in 10.0 mi SSW 9.2 mph - N/A   Clear
2:55 PM 65.8 °F - 42.8 °F 43% 29.91 in 10.0 mi South 10.4 mph - N/A   Clear
3:15 PM 66.0 °F - 41.5 °F 41% 29.90 in 10.0 mi North - - N/A   Clear
3:35 PM 65.5 °F - 42.6 °F 43% 29.90 in 10.0 mi North - - N/A   Clear
3:55 PM 66.4 °F - 42.4 °F 42% 29.90 in 10.0 mi WSW 8.1 mph - N/A   Clear
4:14 PM 65.3 °F - 42.8 °F 44% 29.90 in 10.0 mi North - - N/A   Clear
4:35 PM 67.3 °F - 43.3 °F 42% 29.90 in 10.0 mi SSW 8.1 mph - N/A   Clear
4:55 PM 65.5 °F - 43.7 °F 45% 29.90 in 10.0 mi SSW 8.1 mph - N/A   Clear
5:14 PM 68.9 °F - 42.8 °F 39% 29.90 in 10.0 mi North - - N/A   Clear
5:35 PM 72.1 °F - 40.1 °F 31% 29.90 in 10.0 mi NW 5.8 mph - N/A   Clear
5:55 PM 69.4 °F - 43.7 °F 39% 29.91 in 10.0 mi North - - N/A   Clear
6:15 PM 70.7 °F - 39.6 °F 32% 29.90 in 10.0 mi North - - N/A   Clear
6:35 PM 69.6 °F - 40.1 °F 34% 29.90 in 10.0 mi North - - N/A   Clear
6:54 PM 68.4 °F - 39.0 °F 34% 29.90 in 10.0 mi NNW 13.8 mph - N/A   Clear
7:15 PM 68.0 °F - 40.5 °F 37% 29.90 in 10.0 mi NNW 12.7 mph 17.3 mph N/A   Clear
7:35 PM 67.1 °F - 40.6 °F 38% 29.91 in 10.0 mi NNW 10.4 mph 16.1 mph N/A   Clear
7:54 PM 66.4 °F - 39.7 °F 38% 29.92 in 10.0 mi NNW 10.4 mph - N/A   Clear
8:15 PM 64.9 °F - 39.0 °F 39% 29.92 in 10.0 mi North 12.7 mph - 0.01 in   Clear
8:35 PM 63.3 °F - 37.6 °F 39% 29.93 in 10.0 mi NNW 9.2 mph - 0.01 in   Clear
8:54 PM 61.7 °F - 37.9 °F 41% 29.93 in 10.0 mi NNW 8.1 mph - 0.01 in   Clear
9:15 PM 60.1 °F - 37.4 °F 43% 29.93 in 10.0 mi NNW 8.1 mph - N/A   Clear
9:35 PM 57.0 °F - 37.9 °F 49% 29.93 in 10.0 mi NNW 5.8 mph - N/A   Clear
9:55 PM 55.8 °F - 38.3 °F 52% 29.93 in 10.0 mi NNW 6.9 mph - N/A   Clear
10:15 PM 55.4 °F - 38.3 °F 53% 29.93 in 10.0 mi NNW 6.9 mph - N/A   Clear
10:35 PM 54.5 °F - 38.5 °F 55% 29.93 in 10.0 mi North 6.9 mph - N/A   Clear
11:14 PM 52.7 °F - 38.7 °F 59% 29.93 in 10.0 mi North 4.6 mph - N/A   Clear
11:35 PM 49.3 °F - 38.5 °F 66% 29.93 in 10.0 mi North 5.8 mph - N/A   Clear
11:55 PM 47.8 °F - 38.7 °F 70% 29.93 in 10.0 mi North 6.9 mph - N/A   Clear